Wawona, California
Current Conditions -  °F | °C
As of 4:15 PM on Friday 21 Nov 2014 (Local Time) from KMMH Reporting Station
Overcast Overcast  
Wind Chill: 46°   Ceiling: 7000
Heat Index: 48°   Visibility: 10mi
Dew Point: 14°   Wind: 6mph
Humidity: 25%   Direction: 110°ESE
Pressure: 30.07"   Gusts: NA
Location:  37.6076°N, 119.603°W
Report Text: KMMH 220015Z AUTO 11005KT 10SM OVC070 09/M10 A3007 RMK AO1
Loading
Personal Weather Stations






























Interactive Weather Map New forecast layout! Learn more

10-Day Weather Forecast

Advertisements
Track Severe Weather on mobile